• Join FlightAware (Why Join?)
  • Login
  • US Flag 
12:38PM EST


 

Airport Tracker/Info


-or-


 

Live Flight TrackerFlight Track Log ✈ SWA1031 ✈ 25-Apr-2013 ✈ KSMF - KONT

Flight Track Log - Related Links

Times and Time Zones

All times are in EDT time to prevent confusion due to time zone crossing. See the SWA1031 flight status page for this flight to view local times or setup timezone preferences in your user account.

Time Position Orientation Groundspeed Altitude Reporting Facility
EDT Latitude Longitude Course Direction KTS MPH feet Rate Location/Type
03:06PM 38.6833 -121.6000 142° Southeast 143 165 800  Level Northern Cal TRACON
03:07PM 38.6500 -121.5667 142° Southeast 197 227 2,800 2,100 Climbing Northern Cal TRACON
03:08PM 38.6167 -121.4833 117° Southeast 255 293 5,100 2,520 Climbing Northern Cal TRACON
03:09PM 38.5667 -121.4000 127° Southeast 292 336 8,000 3,300 Climbing Northern Cal TRACON
03:10PM 38.5333 -121.3167 117° Southeast 300 345 11,800 3,420 Climbing Northern Cal TRACON
03:11PM 38.5075 -121.2706 126° Southeast 309 356 12,900 3,060 Climbing Oakland Center
03:12PM 38.4569 -121.1633 121° Southeast 350 403 16,300 2,940 Climbing Oakland Center
03:13PM 38.4072 -121.0561 121° Southeast 362 417 19,000 1,920 Climbing Oakland Center
03:14PM 38.3533 -120.9403 121° Southeast 376 433 20,300 1,920 Climbing Oakland Center
03:15PM 38.2983 -120.8222 121° Southeast 385 443 23,000 2,460 Climbing Oakland Center
03:16PM 38.2394 -120.6983 121° Southeast 405 466 25,400 2,340 Climbing Oakland Center
03:17PM 38.1267 -120.5803 141° Southeast 433 498 27,900 1,800 Climbing Oakland Center
03:18PM 38.0136 -120.5075 153° Southeast 448 516 29,200 1,500 Climbing Oakland Center
03:19PM 37.8994 -120.4322 153° Southeast 457 526 31,000 1,800 Climbing Oakland Center
03:20PM 37.7822 -120.3556 153° Southeast 470 541 33,000 1,920 Climbing Oakland Center
03:21PM 37.6664 -120.2806 153° Southeast 468 539 35,000 1,740 Climbing Oakland Center
03:22PM 37.5514 -120.2067 153° Southeast 463 533 36,600 1,260 Climbing Oakland Center
03:23PM 37.4331 -120.1347 154° Southeast 475 547 37,700 1,140 Climbing Oakland Center
03:24PM 37.3169 -120.0592 153° Southeast 466 536 39,000 600 Climbing Oakland Center
03:25PM 37.2017 -119.9844 153° Southeast 464 534 39,000  Level Oakland Center
03:26PM 37.0711 -119.8992 152° Southeast 458 527 39,000  Level Oakland Center
03:27PM 36.9583 -119.8267 153° Southeast 454 522 39,000  Level Oakland Center
03:28PM 36.8461 -119.7539 153° Southeast 454 522 39,000  Level Oakland Center
03:29PM 36.7336 -119.6844 154° Southeast 451 519 39,000  Level Oakland Center
03:30PM 36.6206 -119.6100 152° Southeast 458 527 39,000  Level Oakland Center
03:31PM 36.5086 -119.5386 153° Southeast 452 520 39,000  Level Oakland Center
03:32PM 36.3958 -119.4669 153° Southeast 453 521 39,000  Level Oakland Center
03:33PM 36.2822 -119.3958 153° Southeast 455 524 39,000  Level Oakland Center
03:34PM 36.1469 -119.3117 153° Southeast 452 520 39,000  Level Oakland Center
03:35PM 36.0317 -119.2400 153° Southeast 462 532 39,000 -300 Level Oakland Center
03:36PM 35.9189 -119.1728 154° Southeast 449 517 38,500 -780 Descending Oakland Center
03:37PM 35.8064 -119.1019 153° Southeast 451 519 37,500 -960 Descending Oakland Center
03:39PM 35.6883 -119.0281 153° Southeast 467 537 36,600 -960 Descending Oakland Center
03:39PM 35.5911 -118.9686 154° Southeast 475 547 35,800 -1,080 Descending Los Angeles Center
03:40PM 35.4744 -118.8978 154° Southeast 469 540 34,600 -1,260 Descending Los Angeles Center
03:41PM 35.3589 -118.8283 154° Southeast 464 534 33,200 -1,320 Descending Los Angeles Center
03:42PM 35.2219 -118.7447 153° Southeast 458 527 31,900 -1,080 Descending Los Angeles Center
03:43PM 35.1125 -118.6775 153° Southeast 443 510 31,000 -540 Descending Los Angeles Center
03:45PM 35.0086 -118.6064 151° Southeast 432 497 30,800 -960 Descending Los Angeles Center
03:46PM 34.9303 -118.4975 131° Southeast 428 493 29,000 -1,860 Descending Los Angeles Center
03:47PM 34.8528 -118.3842 130° Southeast 420 483 27,000 -1,980 Descending Los Angeles Center
03:48PM 34.7786 -118.2767 130° Southeast 417 480 25,000 -1,680 Descending Los Angeles Center
03:49PM 34.7067 -118.1728 130° Southeast 408 470 23,600 -1,380 Descending Los Angeles Center
03:50PM 34.6233 -118.0497 129° Southeast 396 456 22,200 -1,560 Descending Los Angeles Center
03:51PM 34.5731 -117.9372 118° Southeast 382 440 20,400 -1,740 Descending Los Angeles Center
03:52PM 34.5236 -117.8294 119° Southeast 370 426 18,700 -1,680 Descending Los Angeles Center
03:53PM 34.4764 -117.7269 119° Southeast 353 406 17,000 -1,680 Descending Los Angeles Center
03:54PM 34.4297 -117.6256 119° Southeast 346 398 15,200 -1,620 Descending Los Angeles Center
03:55PM 34.3789 -117.5147 119° Southeast 329 379 13,700 -1,260 Descending Los Angeles Center
03:56PM 34.3375 -117.4228 119° Southeast 312 359 12,600 -1,500 Descending Los Angeles Center
03:57PM 34.2914 -117.3386 124° Southeast 302 348 10,600 -1,920 Descending Los Angeles Center
03:58PM 34.2092 -117.3136 166° South 292 336 8,700 -1,380 Descending Los Angeles Center
03:59PM 34.1153 -117.2872 167° South 280 322 7,800 -1,080 Descending Los Angeles Center
04:00PM 34.0833 -117.3333 230° Southwest 209 241 6,800 -1,200 Descending Southern California TRACON
04:01PM 34.0500 -117.3833 231° Southwest 169 194 5,700 -1,320 Descending Southern California TRACON
04:02PM 34.0500 -117.4333 270° West 134 154 4,200 -1,500 Descending Southern California TRACON
04:03PM 34.0500 -117.4667 270° West 130 150 2,800 -1,140 Descending Southern California TRACON
04:04PM 34.0500 -117.5167 270° West 132 152 2,000 -780 Descending Southern California TRACON
04:05PM 34.0500 -117.5667 270° West 133 153 1,300 -720 Descending Southern California TRACON
04:07PM 34.0500 -117.6000 270° West  Level FlightAware Approximate
04:14PM 34.0560 -117.6012 270° West  Level Estimated